createdAt,value
2017-10-15T00:00:52.300Z,16.73
2017-10-15T00:03:22.068Z,19.02
2017-10-15T00:05:54.491Z,13.15
2017-10-15T00:08:23.530Z,15.25
2017-10-15T00:10:58.689Z,17.30
2017-10-15T00:13:34.436Z,14.77
2017-10-15T00:16:10.042Z,24.63
2017-10-15T00:18:40.995Z,16.67
2017-10-15T00:21:14.841Z,24.42
2017-10-15T00:23:47.594Z,23.87
2017-10-15T00:26:22.183Z,33.55
2017-10-15T00:28:51.401Z,25.15
2017-10-15T00:31:24.426Z,34.28
2017-10-15T00:33:59.476Z,36.78
2017-10-15T00:36:30.410Z,21.73
2017-10-15T00:39:04.000Z,16.42
2017-10-15T00:41:32.177Z,17.17
2017-10-15T00:44:00.161Z,18.80
2017-10-15T00:46:28.175Z,23.50
2017-10-15T00:48:56.107Z,22.00
2017-10-15T00:51:24.092Z,18.45
2017-10-15T00:53:52.790Z,21.12
2017-10-15T00:56:20.828Z,20.00
2017-10-15T00:58:48.804Z,22.90
2017-10-15T01:01:16.796Z,17.08
2017-10-15T01:03:51.399Z,20.25
2017-10-15T01:06:19.368Z,31.62
2017-10-15T01:08:47.310Z,30.12
2017-10-15T01:11:15.316Z,26.48
2017-10-15T01:13:43.261Z,23.33
2017-10-15T01:16:11.232Z,24.48
2017-10-15T01:18:39.168Z,19.27
2017-10-15T01:21:07.205Z,21.12
2017-10-15T01:23:35.184Z,17.37
2017-10-15T01:26:03.224Z,19.52
2017-10-15T01:28:31.220Z,17.08
2017-10-15T01:30:59.250Z,15.05
2017-10-15T01:33:27.444Z,19.33
2017-10-15T01:35:55.467Z,12.65
2017-10-15T01:38:23.520Z,16.27
2017-10-15T01:40:51.527Z,17.65
2017-10-15T01:43:19.505Z,14.68
2017-10-15T01:45:47.523Z,15.82
2017-10-15T01:48:15.482Z,17.40
2017-10-15T01:50:43.466Z,17.77
2017-10-15T01:53:11.487Z,20.42
2017-10-15T01:55:39.517Z,15.30
2017-10-15T01:58:07.537Z,18.83
2017-10-15T02:00:35.490Z,16.45
2017-10-15T02:03:04.621Z,17.92
2017-10-15T02:05:32.571Z,15.32
2017-10-15T02:08:00.537Z,13.73
2017-10-15T02:10:28.509Z,18.55
2017-10-15T02:12:56.478Z,11.90
2017-10-15T02:15:24.478Z,13.48
2017-10-15T02:17:52.468Z,13.02
2017-10-15T02:20:20.389Z,6.72
2017-10-15T02:22:48.356Z,10.85
2017-10-15T02:25:16.250Z,9.45
2017-10-15T02:27:44.872Z,10.70
2017-10-15T02:30:12.780Z,12.43
2017-10-15T02:32:40.731Z,12.15
2017-10-15T02:35:08.625Z,8.55
2017-10-15T02:37:36.648Z,7.37
2017-10-15T02:40:04.656Z,11.45
2017-10-15T02:42:32.633Z,10.18
2017-10-15T02:45:00.637Z,12.00
2017-10-15T02:47:28.589Z,7.50
2017-10-15T02:49:56.502Z,13.00
2017-10-15T02:52:24.433Z,15.05
2017-10-15T02:55:00.818Z,9.13
2017-10-15T02:57:28.721Z,9.68
2017-10-15T02:59:56.666Z,8.38
2017-10-15T03:02:25.382Z,7.65
2017-10-15T03:04:53.334Z,7.65
2017-10-15T03:07:22.000Z,6.72
2017-10-15T03:09:49.958Z,6.10
2017-10-15T03:12:17.852Z,11.20
2017-10-15T03:14:52.176Z,9.27
2017-10-15T03:17:20.858Z,8.90
2017-10-15T03:19:49.648Z,8.02
2017-10-15T03:22:17.595Z,6.70
2017-10-15T03:24:45.549Z,8.43
2017-10-15T03:27:13.444Z,7.90
2017-10-15T03:29:41.410Z,10.90
2017-10-15T03:32:09.348Z,17.48
2017-10-15T03:34:37.290Z,7.75
2017-10-15T03:37:05.214Z,6.55
2017-10-15T03:39:33.240Z,5.70
2017-10-15T03:42:01.200Z,5.82
2017-10-15T03:44:30.335Z,4.53
2017-10-15T03:46:58.256Z,10.05
2017-10-15T03:49:26.213Z,5.80
2017-10-15T03:51:54.101Z,9.80
2017-10-15T03:54:22.061Z,7.45
2017-10-15T03:56:50.727Z,9.93
2017-10-15T03:59:18.685Z,6.85
2017-10-15T04:01:46.582Z,6.30
2017-10-15T04:04:14.538Z,10.02
2017-10-15T04:06:42.513Z,10.57
2017-10-15T04:09:10.458Z,7.30
2017-10-15T04:11:38.425Z,5.10
2017-10-15T04:14:08.434Z,5.20
2017-10-15T04:16:36.421Z,8.95
2017-10-15T04:19:04.439Z,10.15
2017-10-15T04:21:32.387Z,9.60
2017-10-15T04:24:01.070Z,6.75
2017-10-15T04:26:29.063Z,9.63
2017-10-15T04:28:57.724Z,6.05
2017-10-15T04:31:25.687Z,8.27
2017-10-15T04:33:53.607Z,10.43
2017-10-15T04:36:21.561Z,7.35
2017-10-15T04:38:49.479Z,9.75
2017-10-15T04:41:17.484Z,9.65
2017-10-15T04:43:49.845Z,8.25
2017-10-15T04:46:17.809Z,6.87
2017-10-15T04:48:45.722Z,6.05
2017-10-15T04:51:13.692Z,7.90
2017-10-15T04:53:41.620Z,6.87
2017-10-15T04:56:09.573Z,10.73
2017-10-15T04:58:37.487Z,6.45
2017-10-15T05:01:05.449Z,5.43
2017-10-15T05:03:33.384Z,13.73
2017-10-15T05:06:01.391Z,7.20
2017-10-15T05:08:30.066Z,18.55
2017-10-15T05:10:58.038Z,8.10
2017-10-15T05:13:39.474Z,9.05
2017-10-15T05:16:07.442Z,11.45
2017-10-15T05:18:35.406Z,7.68
2017-10-15T05:21:03.360Z,8.30
2017-10-15T05:23:31.319Z,10.45
2017-10-15T05:25:59.207Z,6.85
2017-10-15T05:28:27.166Z,7.40
2017-10-15T05:30:55.096Z,9.90
2017-10-15T05:33:23.051Z,4.50
2017-10-15T05:35:50.981Z,6.07
2017-10-15T05:38:18.931Z,8.27
2017-10-15T05:40:46.876Z,9.07
2017-10-15T05:43:15.057Z,8.95
2017-10-15T05:45:42.951Z,8.98
2017-10-15T05:48:10.971Z,5.72
2017-10-15T05:50:38.915Z,8.35
2017-10-15T05:53:06.921Z,8.10
2017-10-15T05:55:34.871Z,6.40
2017-10-15T05:58:02.871Z,7.82
2017-10-15T06:00:30.793Z,7.25
2017-10-15T06:02:58.734Z,5.80
2017-10-15T06:05:26.694Z,5.20
2017-10-15T06:07:54.657Z,8.73
2017-10-15T06:10:22.605Z,9.45
2017-10-15T06:12:50.587Z,14.63
2017-10-15T06:15:18.530Z,11.45
2017-10-15T06:17:46.510Z,10.63
2017-10-15T06:20:14.431Z,7.12
2017-10-15T06:22:42.344Z,5.07
2017-10-15T06:25:10.302Z,7.03
2017-10-15T06:27:38.967Z,5.07
2017-10-15T06:30:06.931Z,6.43
2017-10-15T06:32:34.863Z,5.75
2017-10-15T06:35:03.031Z,5.97
2017-10-15T06:37:30.938Z,7.50
2017-10-15T06:39:58.898Z,9.30
2017-10-15T06:42:26.804Z,16.45
2017-10-15T06:44:54.765Z,6.20
2017-10-15T06:47:22.656Z,5.32
2017-10-15T06:49:50.599Z,6.82
2017-10-15T06:52:18.593Z,30.73
2017-10-15T06:54:47.906Z,5.80
2017-10-15T06:57:15.815Z,6.37
2017-10-15T06:59:44.593Z,5.97
2017-10-15T07:02:13.263Z,6.65
2017-10-15T07:04:43.257Z,5.20
2017-10-15T07:07:11.178Z,9.75
2017-10-15T07:09:39.196Z,5.65
2017-10-15T07:12:07.112Z,6.32
2017-10-15T07:14:35.177Z,5.23
2017-10-15T07:17:03.085Z,5.50
2017-10-15T07:19:31.046Z,7.80
2017-10-15T07:21:58.974Z,4.50
2017-10-15T07:24:26.955Z,10.10
2017-10-15T07:26:54.874Z,4.00
2017-10-15T07:29:22.861Z,5.00
2017-10-15T07:31:50.757Z,3.87
2017-10-15T07:34:18.852Z,4.40
2017-10-15T07:36:47.582Z,3.20
2017-10-15T07:39:15.507Z,4.50
2017-10-15T07:41:43.470Z,3.87
2017-10-15T07:44:11.400Z,3.73
2017-10-15T07:46:39.358Z,3.83
2017-10-15T07:49:07.351Z,5.17
2017-10-15T07:51:35.304Z,4.07
2017-10-15T07:54:03.207Z,5.03
2017-10-15T07:56:31.170Z,5.23
2017-10-15T07:58:59.876Z,2.83
2017-10-15T08:01:27.832Z,4.10
2017-10-15T08:03:59.390Z,4.73
2017-10-15T08:06:27.328Z,3.47
2017-10-15T08:08:55.227Z,5.60
2017-10-15T08:11:23.173Z,4.00
2017-10-15T08:13:51.090Z,3.87
2017-10-15T08:16:19.110Z,3.47
2017-10-15T08:18:47.126Z,6.63
2017-10-15T08:21:15.185Z,3.70
2017-10-15T08:23:43.097Z,3.40
2017-10-15T08:26:11.037Z,3.50
2017-10-15T08:28:39.702Z,3.50
2017-10-15T08:31:07.657Z,4.23
2017-10-15T08:33:35.654Z,3.57
2017-10-15T08:36:03.603Z,7.20
2017-10-15T08:38:31.491Z,3.70
2017-10-15T08:40:59.386Z,3.83
2017-10-15T08:43:27.378Z,4.17
2017-10-15T08:45:55.302Z,4.23
2017-10-15T08:48:23.237Z,4.70
2017-10-15T08:50:51.147Z,3.47
2017-10-15T08:53:22.375Z,4.17
2017-10-15T08:55:50.265Z,5.80
2017-10-15T08:58:20.881Z,5.50
2017-10-15T09:00:48.793Z,4.17
2017-10-15T09:03:16.741Z,4.63
2017-10-15T09:05:44.641Z,3.80
2017-10-15T09:08:12.611Z,10.10
2017-10-15T09:10:40.505Z,6.73
2017-10-15T09:13:08.445Z,5.80
2017-10-15T09:15:36.351Z,3.53
2017-10-15T09:18:04.294Z,4.57
2017-10-15T09:20:32.205Z,4.67
2017-10-15T09:23:00.246Z,4.67
2017-10-15T09:25:28.155Z,4.30
2017-10-15T09:27:56.111Z,6.10
2017-10-15T09:30:24.078Z,4.60
2017-10-15T09:32:52.078Z,6.97
2017-10-15T09:35:20.038Z,4.27
2017-10-15T09:37:47.994Z,7.17
2017-10-15T09:40:15.906Z,3.13
2017-10-15T09:42:44.649Z,4.33
2017-10-15T09:45:12.612Z,5.57
2017-10-15T09:47:40.518Z,6.00
2017-10-15T09:50:08.481Z,6.03
2017-10-15T09:52:36.381Z,6.77
2017-10-15T09:55:04.594Z,4.40
2017-10-15T09:57:32.493Z,4.80
2017-10-15T10:00:01.218Z,4.90
2017-10-15T10:02:29.111Z,5.63
2017-10-15T10:04:57.037Z,3.90
2017-10-15T10:07:24.934Z,3.43
2017-10-15T10:09:52.886Z,3.80
2017-10-15T10:12:20.798Z,3.43
2017-10-15T10:14:49.764Z,4.47
2017-10-15T10:17:17.687Z,3.63
2017-10-15T10:19:45.666Z,5.33
2017-10-15T10:22:13.614Z,2.73
2017-10-15T10:24:42.346Z,3.93
2017-10-15T10:27:10.273Z,3.90
2017-10-15T10:29:38.218Z,5.83
2017-10-15T10:32:06.101Z,8.70
2017-10-15T10:34:34.061Z,4.80
2017-10-15T10:37:01.962Z,3.13
2017-10-15T10:39:29.973Z,3.37
2017-10-15T10:41:57.929Z,3.10
2017-10-15T10:44:29.413Z,2.90
2017-10-15T10:46:57.305Z,3.20
2017-10-15T10:49:25.192Z,3.67
2017-10-15T10:51:53.976Z,4.17
2017-10-15T10:54:21.902Z,5.37
2017-10-15T10:56:49.897Z,6.20
2017-10-15T10:59:17.793Z,4.50
2017-10-15T11:01:46.526Z,4.80
2017-10-15T11:04:14.397Z,4.10
2017-10-15T11:06:42.330Z,6.03
2017-10-15T11:09:10.216Z,6.00
2017-10-15T11:11:38.154Z,3.67
2017-10-15T11:14:15.355Z,4.10
2017-10-15T11:16:43.285Z,4.10
2017-10-15T11:19:11.155Z,3.20
2017-10-15T11:21:39.068Z,3.73
2017-10-15T11:24:06.947Z,7.23
2017-10-15T11:26:34.865Z,5.90
2017-10-15T11:29:02.756Z,3.83
2017-10-15T11:31:31.455Z,3.30
2017-10-15T11:33:59.347Z,7.93
2017-10-15T11:36:27.280Z,5.47
2017-10-15T11:38:55.170Z,8.73
2017-10-15T11:41:23.169Z,10.93
2017-10-15T11:43:52.287Z,5.57
2017-10-15T11:46:20.231Z,5.57
2017-10-15T11:48:48.107Z,4.17
2017-10-15T11:51:16.052Z,4.83
2017-10-15T11:53:43.927Z,3.93
2017-10-15T11:56:11.854Z,5.43
2017-10-15T11:58:40.501Z,5.50
2017-10-15T12:01:08.433Z,4.80
2017-10-15T12:03:36.309Z,5.77
2017-10-15T12:06:04.235Z,5.23
2017-10-15T12:08:32.117Z,4.67
2017-10-15T12:11:00.813Z,4.50
2017-10-15T12:13:28.896Z,3.33
2017-10-15T12:15:56.829Z,4.77
2017-10-15T12:18:24.759Z,4.87
2017-10-15T12:20:52.679Z,7.37
2017-10-15T12:23:21.400Z,5.10
2017-10-15T12:25:49.285Z,3.90
2017-10-15T12:28:17.397Z,5.53
2017-10-15T12:30:45.310Z,9.10
2017-10-15T12:33:13.251Z,9.30
2017-10-15T12:35:41.141Z,4.87
2017-10-15T12:38:09.088Z,7.23
2017-10-15T12:40:37.026Z,7.10
2017-10-15T12:43:05.983Z,6.33
2017-10-15T12:45:33.995Z,5.30
2017-10-15T12:48:02.778Z,8.93
2017-10-15T12:50:30.727Z,6.20
2017-10-15T12:52:58.677Z,6.10
2017-10-15T12:55:26.612Z,8.23
2017-10-15T12:57:54.642Z,10.77
2017-10-15T13:00:22.554Z,7.17
2017-10-15T13:02:51.297Z,9.03
2017-10-15T13:05:19.319Z,7.80
2017-10-15T13:07:49.397Z,8.03
2017-10-15T13:10:17.377Z,9.43
2017-10-15T13:12:45.359Z,6.43
2017-10-15T13:15:13.399Z,7.97
2017-10-15T13:17:41.421Z,7.93
2017-10-15T13:20:12.031Z,9.63
2017-10-15T13:22:40.051Z,8.40
2017-10-15T13:25:08.146Z,11.60
2017-10-15T13:27:36.123Z,10.10
2017-10-15T13:30:04.128Z,8.40
2017-10-15T13:32:32.046Z,9.17
2017-10-15T13:35:03.288Z,17.77
2017-10-15T13:37:31.290Z,9.43
2017-10-15T13:39:59.329Z,9.13
2017-10-15T13:42:27.262Z,8.33
2017-10-15T13:44:55.213Z,8.33
2017-10-15T13:47:23.128Z,9.17
2017-10-15T13:49:51.106Z,11.37
2017-10-15T13:52:19.037Z,8.10
2017-10-15T13:54:47.026Z,9.20
2017-10-15T13:57:14.936Z,8.13
2017-10-15T13:59:46.741Z,13.43
2017-10-15T14:02:14.756Z,6.30
2017-10-15T14:04:42.816Z,8.90
2017-10-15T14:07:10.730Z,5.10
2017-10-15T14:09:38.658Z,13.40
2017-10-15T14:12:06.565Z,8.80
2017-10-15T14:14:34.466Z,6.73
2017-10-15T14:17:02.392Z,8.53
2017-10-15T14:19:30.261Z,9.23
2017-10-15T14:22:00.029Z,13.20
2017-10-15T14:24:28.078Z,6.33
2017-10-15T14:26:59.833Z,8.30
2017-10-15T14:29:27.860Z,6.13
2017-10-15T14:31:55.913Z,7.97
2017-10-15T14:34:23.816Z,18.97
2017-10-15T14:36:51.801Z,5.60
2017-10-15T14:39:19.711Z,6.43
2017-10-15T14:41:47.713Z,8.13
2017-10-15T14:44:15.719Z,5.93
2017-10-15T14:46:43.655Z,5.97
2017-10-15T14:49:11.516Z,6.30
2017-10-15T14:51:39.449Z,8.37
2017-10-15T14:54:07.334Z,7.40
2017-10-15T14:56:35.273Z,6.00
2017-10-15T14:59:03.170Z,6.43
2017-10-15T15:01:31.098Z,7.53
2017-10-15T15:03:58.988Z,7.30
2017-10-15T15:06:26.969Z,5.53
2017-10-15T15:08:54.917Z,4.97
2017-10-15T15:11:22.918Z,6.80
2017-10-15T15:13:52.890Z,8.50
2017-10-15T15:16:20.817Z,9.53
2017-10-15T15:18:48.709Z,7.80
2017-10-15T15:21:16.654Z,13.93
2017-10-15T15:23:44.566Z,10.60
2017-10-15T15:26:12.457Z,13.33
2017-10-15T15:28:41.163Z,8.13
2017-10-15T15:31:09.062Z,8.43
2017-10-15T15:33:37.002Z,6.13
2017-10-15T15:36:04.894Z,9.40
2017-10-15T15:38:33.835Z,9.13
2017-10-15T15:41:01.717Z,6.70
2017-10-15T15:43:31.669Z,7.77
2017-10-15T15:45:59.552Z,6.10
2017-10-15T15:48:27.493Z,11.00
2017-10-15T15:50:55.374Z,7.17
2017-10-15T15:53:23.289Z,8.33
2017-10-15T15:55:51.169Z,8.30
2017-10-15T15:58:19.099Z,6.80
2017-10-15T16:00:46.986Z,7.03
2017-10-15T16:03:14.941Z,27.97
2017-10-15T16:05:42.889Z,7.53
2017-10-15T16:08:10.820Z,6.63
2017-10-15T16:10:39.474Z,11.83
2017-10-15T16:13:08.521Z,7.23
2017-10-15T16:15:37.692Z,10.70
2017-10-15T16:18:05.849Z,10.63
2017-10-15T16:20:33.752Z,11.80
2017-10-15T16:23:01.713Z,13.93
2017-10-15T16:25:30.412Z,12.63
2017-10-15T16:27:58.468Z,8.23
2017-10-15T16:30:27.150Z,8.50
2017-10-15T16:32:55.048Z,17.27
2017-10-15T16:35:23.054Z,16.93
2017-10-15T16:37:51.023Z,11.97
2017-10-15T16:40:18.964Z,15.27
2017-10-15T16:42:46.865Z,14.03
2017-10-15T16:45:14.869Z,11.13
2017-10-15T16:47:43.536Z,13.17
2017-10-15T16:50:11.550Z,16.63
2017-10-15T16:52:40.064Z,17.67
2017-10-15T16:55:08.031Z,12.33
2017-10-15T16:57:35.977Z,16.70
2017-10-15T17:00:04.004Z,18.07
2017-10-15T17:02:31.941Z,12.10
2017-10-15T17:05:03.019Z,11.00
2017-10-15T17:07:30.976Z,11.17
2017-10-15T17:09:58.967Z,12.77
2017-10-15T17:12:27.760Z,10.93
2017-10-15T17:14:55.759Z,12.80
2017-10-15T17:17:23.717Z,10.70
2017-10-15T17:19:51.726Z,15.40
2017-10-15T17:22:19.682Z,13.87
2017-10-15T17:24:47.700Z,15.93
2017-10-15T17:27:16.191Z,12.30
2017-10-15T17:29:45.555Z,14.90
2017-10-15T17:32:13.452Z,18.10
2017-10-15T17:34:42.690Z,15.40
2017-10-15T17:37:10.644Z,11.33
2017-10-15T17:39:39.354Z,15.77
2017-10-15T17:42:07.270Z,28.03
2017-10-15T17:44:35.237Z,18.03
2017-10-15T17:47:03.134Z,24.23
2017-10-15T17:49:31.122Z,14.10
2017-10-15T17:51:59.073Z,10.50
2017-10-15T17:54:27.001Z,11.67
2017-10-15T17:56:55.000Z,23.63
2017-10-15T17:59:22.954Z,16.80
2017-10-15T18:01:51.011Z,16.77
2017-10-15T18:04:18.904Z,9.70
2017-10-15T18:06:46.881Z,12.50
2017-10-15T18:09:14.819Z,15.93
2017-10-15T18:11:42.782Z,14.50
2017-10-15T18:14:10.682Z,20.00
2017-10-15T18:16:38.645Z,10.87
2017-10-15T18:19:12.041Z,14.40
2017-10-15T18:21:41.680Z,11.35
2017-10-15T18:24:13.878Z,17.07
2017-10-15T18:26:41.872Z,9.33
2017-10-15T18:29:09.804Z,18.03
2017-10-15T18:31:37.781Z,17.20
2017-10-15T18:34:05.700Z,15.00
2017-10-15T18:36:33.699Z,15.02
2017-10-15T18:39:01.633Z,18.10
2017-10-15T18:41:29.596Z,12.60
2017-10-15T18:43:57.523Z,13.27
2017-10-15T18:46:25.544Z,13.13
2017-10-15T18:48:53.464Z,7.77
2017-10-15T18:51:21.407Z,14.57
2017-10-15T18:53:49.620Z,10.07
2017-10-15T18:56:17.544Z,14.80
2017-10-15T18:58:45.523Z,15.40
2017-10-15T19:01:13.444Z,14.65
2017-10-15T19:03:44.922Z,12.25
2017-10-15T19:06:12.857Z,17.30
2017-10-15T19:08:40.822Z,14.10
2017-10-15T19:11:08.781Z,14.23
2017-10-15T19:13:36.897Z,14.90
2017-10-15T19:16:04.880Z,15.18
2017-10-15T19:18:32.844Z,13.48
2017-10-15T19:21:00.826Z,14.02
2017-10-15T19:23:28.780Z,14.35
2017-10-15T19:25:56.681Z,12.90
2017-10-15T19:28:25.714Z,17.70
2017-10-15T19:30:54.068Z,10.80
2017-10-15T19:33:22.094Z,15.68
2017-10-15T19:35:52.614Z,13.50
2017-10-15T19:38:20.580Z,22.00
2017-10-15T19:40:48.574Z,14.63
2017-10-15T19:43:23.295Z,20.02
2017-10-15T19:45:53.713Z,15.55
2017-10-15T19:48:24.742Z,12.80
2017-10-15T19:50:55.657Z,14.38
2017-10-15T19:53:26.189Z,21.05
2017-10-15T19:55:54.094Z,9.88
2017-10-15T19:58:22.056Z,17.33
2017-10-15T20:00:50.002Z,17.48
2017-10-15T20:03:18.018Z,9.00
2017-10-15T20:05:45.975Z,12.25
2017-10-15T20:08:13.947Z,9.45
2017-10-15T20:10:41.856Z,18.25
2017-10-15T20:13:10.559Z,16.90
2017-10-15T20:15:38.530Z,10.95
2017-10-15T20:18:06.482Z,16.55
2017-10-15T20:20:35.224Z,10.98
2017-10-15T20:23:07.214Z,28.77
2017-10-15T20:25:35.220Z,16.65
2017-10-15T20:28:04.125Z,14.60
2017-10-15T20:30:33.002Z,11.15
2017-10-15T20:33:00.942Z,16.35
2017-10-15T20:35:28.985Z,18.17
2017-10-15T20:37:56.932Z,16.60
2017-10-15T20:40:24.924Z,10.05
2017-10-15T20:42:52.839Z,12.35
2017-10-15T20:45:20.837Z,11.18
2017-10-15T20:47:48.775Z,13.90
2017-10-15T20:50:19.147Z,18.00
2017-10-15T20:52:47.063Z,16.35
2017-10-15T20:55:15.036Z,10.45
2017-10-15T20:57:42.964Z,10.35
2017-10-15T21:00:10.973Z,12.02
2017-10-15T21:02:38.957Z,17.60
2017-10-15T21:05:06.917Z,10.60
2017-10-15T21:07:34.815Z,9.27
2017-10-15T21:10:02.793Z,12.60
2017-10-15T21:12:30.738Z,11.50
2017-10-15T21:15:03.205Z,16.77
2017-10-15T21:17:31.125Z,15.52
2017-10-15T21:19:59.073Z,12.93
2017-10-15T21:22:27.021Z,17.42
2017-10-15T21:24:54.954Z,12.95
2017-10-15T21:27:22.928Z,12.90
2017-10-15T21:29:50.845Z,14.70
2017-10-15T21:32:19.620Z,14.43
2017-10-15T21:34:48.328Z,13.73
2017-10-15T21:37:16.289Z,11.40
2017-10-15T21:39:44.982Z,18.67
2017-10-15T21:42:13.697Z,21.65
2017-10-15T21:44:43.693Z,14.15
2017-10-15T21:47:11.660Z,14.38
2017-10-15T21:49:39.570Z,15.73
2017-10-15T21:52:07.518Z,19.45
2017-10-15T21:54:41.609Z,11.75
2017-10-15T21:57:22.355Z,12.68
2017-10-15T21:59:57.484Z,11.05
2017-10-15T22:02:25.797Z,11.32
2017-10-15T22:04:53.806Z,14.10
2017-10-15T22:07:21.770Z,10.68
2017-10-15T22:09:49.698Z,7.93
2017-10-15T22:12:21.845Z,10.32
2017-10-15T22:14:49.774Z,12.75
2017-10-15T22:17:17.744Z,10.27
2017-10-15T22:19:45.676Z,17.75
2017-10-15T22:22:19.113Z,8.90
2017-10-15T22:24:47.036Z,11.00
2017-10-15T22:27:15.005Z,11.45
2017-10-15T22:29:42.892Z,17.15
2017-10-15T22:32:10.843Z,13.20
2017-10-15T22:34:39.562Z,12.25
2017-10-15T22:37:07.514Z,10.55
2017-10-15T22:39:35.443Z,10.35
2017-10-15T22:42:03.427Z,12.07
2017-10-15T22:44:31.336Z,9.25
2017-10-15T22:46:59.242Z,15.15
2017-10-15T22:49:27.196Z,11.10
2017-10-15T22:51:55.121Z,10.30
2017-10-15T22:54:27.556Z,11.18
2017-10-15T22:56:55.450Z,13.95
2017-10-15T22:59:23.410Z,17.23
2017-10-15T23:01:51.324Z,13.73
2017-10-15T23:04:19.289Z,13.80
2017-10-15T23:06:47.202Z,13.50
2017-10-15T23:09:15.168Z,13.20
2017-10-15T23:11:43.081Z,13.15
2017-10-15T23:14:11.823Z,13.27
2017-10-15T23:16:39.728Z,15.43
2017-10-15T23:19:07.679Z,9.82
2017-10-15T23:21:35.625Z,13.95
2017-10-15T23:24:05.665Z,11.60
2017-10-15T23:26:33.593Z,9.57
2017-10-15T23:29:01.565Z,9.57
2017-10-15T23:31:29.489Z,15.75
2017-10-15T23:33:57.465Z,16.15
2017-10-15T23:36:25.427Z,12.70
2017-10-15T23:38:53.426Z,10.73
2017-10-15T23:41:22.092Z,14.10
2017-10-15T23:43:50.045Z,10.43
2017-10-15T23:46:17.944Z,8.43
2017-10-15T23:48:46.688Z,14.00
2017-10-15T23:51:14.643Z,13.05
2017-10-15T23:53:43.681Z,12.82
2017-10-15T23:56:11.653Z,13.18
2017-10-15T23:58:39.557Z,14.45
